sensor_id;sensor_type;location;lat;lon;timestamp;temperature;humidity
60727;DHT22;46577;49.004;12.120;2022-07-23T00:00:19;23.10;82.90
60727;DHT22;46577;49.004;12.120;2022-07-23T00:02:45;23.10;82.60
60727;DHT22;46577;49.004;12.120;2022-07-23T00:05:11;23.00;82.50
60727;DHT22;46577;49.004;12.120;2022-07-23T00:07:37;23.10;82.40
60727;DHT22;46577;49.004;12.120;2022-07-23T00:10:04;23.20;82.00
60727;DHT22;46577;49.004;12.120;2022-07-23T00:12:30;23.30;81.70
60727;DHT22;46577;49.004;12.120;2022-07-23T00:14:55;23.30;81.70
60727;DHT22;46577;49.004;12.120;2022-07-23T00:17:21;23.40;81.50
60727;DHT22;46577;49.004;12.120;2022-07-23T00:19:47;23.40;81.80
60727;DHT22;46577;49.004;12.120;2022-07-23T00:22:12;23.30;82.20
60727;DHT22;46577;49.004;12.120;2022-07-23T00:24:38;23.40;82.60
60727;DHT22;46577;49.004;12.120;2022-07-23T00:27:04;23.30;83.00
60727;DHT22;46577;49.004;12.120;2022-07-23T00:29:29;23.30;83.50
60727;DHT22;46577;49.004;12.120;2022-07-23T00:31:55;23.20;83.70
60727;DHT22;46577;49.004;12.120;2022-07-23T00:34:21;23.20;84.40
60727;DHT22;46577;49.004;12.120;2022-07-23T00:36:46;23.20;85.20
60727;DHT22;46577;49.004;12.120;2022-07-23T00:39:12;23.20;86.50
60727;DHT22;46577;49.004;12.120;2022-07-23T00:41:38;23.20;86.90
60727;DHT22;46577;49.004;12.120;2022-07-23T00:44:21;23.20;88.20
60727;DHT22;46577;49.004;12.120;2022-07-23T00:46:56;23.00;89.50
60727;DHT22;46577;49.004;12.120;2022-07-23T00:49:24;22.90;90.20
60727;DHT22;46577;49.004;12.120;2022-07-23T00:51:50;22.90;90.50
60727;DHT22;46577;49.004;12.120;2022-07-23T00:54:17;22.90;90.60
60727;DHT22;46577;49.004;12.120;2022-07-23T00:56:45;22.90;90.50
60727;DHT22;46577;49.004;12.120;2022-07-23T00:59:11;22.90;90.50
60727;DHT22;46577;49.004;12.120;2022-07-23T01:01:37;22.90;90.50
60727;DHT22;46577;49.004;12.120;2022-07-23T01:04:02;20.90;90.00
60727;DHT22;46577;49.004;12.120;2022-07-23T01:06:28;22.70;91.00
60727;DHT22;46577;49.004;12.120;2022-07-23T01:08:55;22.70;91.10
60727;DHT22;46577;49.004;12.120;2022-07-23T01:11:22;22.80;91.10
60727;DHT22;46577;49.004;12.120;2022-07-23T01:13:48;22.80;91.10
60727;DHT22;46577;49.004;12.120;2022-07-23T01:16:14;22.80;91.30
60727;DHT22;46577;49.004;12.120;2022-07-23T01:18:40;22.80;91.40
60727;DHT22;46577;49.004;12.120;2022-07-23T01:21:05;22.80;91.40
60727;DHT22;46577;49.004;12.120;2022-07-23T01:23:31;22.80;91.70
60727;DHT22;46577;49.004;12.120;2022-07-23T01:25:56;22.70;91.80
60727;DHT22;46577;49.004;12.120;2022-07-23T01:28:22;22.80;91.80
60727;DHT22;46577;49.004;12.120;2022-07-23T01:30:48;22.80;92.00
60727;DHT22;46577;49.004;12.120;2022-07-23T01:33:14;22.80;92.10
60727;DHT22;46577;49.004;12.120;2022-07-23T01:35:40;22.80;92.00
60727;DHT22;46577;49.004;12.120;2022-07-23T01:38:05;22.80;92.10
60727;DHT22;46577;49.004;12.120;2022-07-23T01:40:31;22.80;92.00
60727;DHT22;46577;49.004;12.120;2022-07-23T01:42:57;22.90;92.10
60727;DHT22;46577;49.004;12.120;2022-07-23T01:45:23;22.90;91.90
60727;DHT22;46577;49.004;12.120;2022-07-23T01:47:48;22.90;91.70
60727;DHT22;46577;49.004;12.120;2022-07-23T01:50:14;22.90;91.50
60727;DHT22;46577;49.004;12.120;2022-07-23T01:52:40;22.90;91.30
60727;DHT22;46577;49.004;12.120;2022-07-23T01:55:06;22.90;91.40
60727;DHT22;46577;49.004;12.120;2022-07-23T01:57:32;22.90;91.20
60727;DHT22;46577;49.004;12.120;2022-07-23T01:59:58;22.90;91.30
60727;DHT22;46577;49.004;12.120;2022-07-23T02:02:23;23.00;91.30
60727;DHT22;46577;49.004;12.120;2022-07-23T02:04:49;23.00;91.20
60727;DHT22;46577;49.004;12.120;2022-07-23T02:07:15;23.00;91.20
60727;DHT22;46577;49.004;12.120;2022-07-23T02:09:40;22.80;91.90
60727;DHT22;46577;49.004;12.120;2022-07-23T02:12:06;22.70;92.10
60727;DHT22;46577;49.004;12.120;2022-07-23T02:14:32;22.70;92.10
60727;DHT22;46577;49.004;12.120;2022-07-23T02:16:57;22.70;92.20
60727;DHT22;46577;49.004;12.120;2022-07-23T02:19:23;22.60;92.20
60727;DHT22;46577;49.004;12.120;2022-07-23T02:21:49;22.50;92.10
60727;DHT22;46577;49.004;12.120;2022-07-23T02:24:15;22.40;92.80
60727;DHT22;46577;49.004;12.120;2022-07-23T02:26:40;22.20;93.80
60727;DHT22;46577;49.004;12.120;2022-07-23T02:29:06;22.10;93.90
60727;DHT22;46577;49.004;12.120;2022-07-23T02:31:32;22.10;94.30
60727;DHT22;46577;49.004;12.120;2022-07-23T02:33:58;22.20;94.10
60727;DHT22;46577;49.004;12.120;2022-07-23T02:36:24;22.20;93.70
60727;DHT22;46577;49.004;12.120;2022-07-23T02:38:50;22.30;93.90
60727;DHT22;46577;49.004;12.120;2022-07-23T02:41:16;22.30;94.20
60727;DHT22;46577;49.004;12.120;2022-07-23T02:43:41;22.30;94.50
60727;DHT22;46577;49.004;12.120;2022-07-23T02:46:07;22.30;94.90
60727;DHT22;46577;49.004;12.120;2022-07-23T02:48:33;22.30;95.40
60727;DHT22;46577;49.004;12.120;2022-07-23T02:50:58;22.20;95.70
60727;DHT22;46577;49.004;12.120;2022-07-23T02:53:25;22.20;95.80
60727;DHT22;46577;49.004;12.120;2022-07-23T02:55:51;22.10;96.10
60727;DHT22;46577;49.004;12.120;2022-07-23T02:58:17;22.10;95.50
60727;DHT22;46577;49.004;12.120;2022-07-23T03:00:43;22.10;95.00
60727;DHT22;46577;49.004;12.120;2022-07-23T03:03:08;22.10;94.50
60727;DHT22;46577;49.004;12.120;2022-07-23T03:05:34;22.20;94.40
60727;DHT22;46577;49.004;12.120;2022-07-23T03:08:00;22.20;94.40
60727;DHT22;46577;49.004;12.120;2022-07-23T03:10:26;22.10;95.30
60727;DHT22;46577;49.004;12.120;2022-07-23T03:12:52;22.00;95.20
60727;DHT22;46577;49.004;12.120;2022-07-23T03:15:17;22.00;95.80
60727;DHT22;46577;49.004;12.120;2022-07-23T03:17:43;21.90;96.90
60727;DHT22;46577;49.004;12.120;2022-07-23T03:20:09;21.80;97.80
60727;DHT22;46577;49.004;12.120;2022-07-23T03:22:35;21.70;99.30
60727;DHT22;46577;49.004;12.120;2022-07-23T03:25:01;21.70;99.90
60727;DHT22;46577;49.004;12.120;2022-07-23T03:27:29;21.60;99.90
60727;DHT22;46577;49.004;12.120;2022-07-23T03:29:56;21.80;99.90
60727;DHT22;46577;49.004;12.120;2022-07-23T03:32:22;21.90;99.90
60727;DHT22;46577;49.004;12.120;2022-07-23T03:34:48;21.90;99.90
60727;DHT22;46577;49.004;12.120;2022-07-23T03:37:14;22.00;99.90
60727;DHT22;46577;49.004;12.120;2022-07-23T03:39:40;22.00;99.90
60727;DHT22;46577;49.004;12.120;2022-07-23T03:42:06;22.10;99.90
60727;DHT22;46577;49.004;12.120;2022-07-23T03:44:32;22.10;99.90
60727;DHT22;46577;49.004;12.120;2022-07-23T03:46:58;22.00;99.90
60727;DHT22;46577;49.004;12.120;2022-07-23T03:49:24;21.90;99.90
60727;DHT22;46577;49.004;12.120;2022-07-23T03:51:50;21.70;99.90
60727;DHT22;46577;49.004;12.120;2022-07-23T03:54:16;21.60;99.90
60727;DHT22;46577;49.004;12.120;2022-07-23T03:56:41;21.50;99.90
60727;DHT22;46577;49.004;12.120;2022-07-23T03:59:08;21.30;99.90
60727;DHT22;46577;49.004;12.120;2022-07-23T04:01:34;21.20;99.90
60727;DHT22;46577;49.004;12.120;2022-07-23T04:04:00;21.10;99.90
60727;DHT22;46577;49.004;12.120;2022-07-23T04:06:26;21.10;99.90
60727;DHT22;46577;49.004;12.120;2022-07-23T04:08:52;21.20;99.90
60727;DHT22;46577;49.004;12.120;2022-07-23T04:11:17;21.20;99.90
60727;DHT22;46577;49.004;12.120;2022-07-23T04:13:43;21.20;99.90
60727;DHT22;46577;49.004;12.120;2022-07-23T04:16:09;21.30;99.90
60727;DHT22;46577;49.004;12.120;2022-07-23T04:18:34;21.20;99.90
60727;DHT22;46577;49.004;12.120;2022-07-23T04:21:00;21.20;99.90
60727;DHT22;46577;49.004;12.120;2022-07-23T04:23:26;21.20;99.90
60727;DHT22;46577;49.004;12.120;2022-07-23T04:25:51;21.10;99.90
60727;DHT22;46577;49.004;12.120;2022-07-23T04:28:17;21.20;99.90
60727;DHT22;46577;49.004;12.120;2022-07-23T04:30:43;21.30;99.90
60727;DHT22;46577;49.004;12.120;2022-07-23T04:33:08;21.40;99.90
60727;DHT22;46577;49.004;12.120;2022-07-23T04:35:34;21.40;99.90
60727;DHT22;46577;49.004;12.120;2022-07-23T04:38:01;21.60;99.90
60727;DHT22;46577;49.004;12.120;2022-07-23T04:40:27;21.60;99.90
60727;DHT22;46577;49.004;12.120;2022-07-23T04:42:53;21.60;99.90
60727;DHT22;46577;49.004;12.120;2022-07-23T04:45:19;21.60;99.90
60727;DHT22;46577;49.004;12.120;2022-07-23T04:47:44;21.60;99.90
60727;DHT22;46577;49.004;12.120;2022-07-23T04:50:10;21.50;99.90
60727;DHT22;46577;49.004;12.120;2022-07-23T04:52:36;21.60;99.90
60727;DHT22;46577;49.004;12.120;2022-07-23T04:55:02;21.60;99.90
60727;DHT22;46577;49.004;12.120;2022-07-23T04:57:27;21.70;99.90
60727;DHT22;46577;49.004;12.120;2022-07-23T04:59:53;21.80;99.90
60727;DHT22;46577;49.004;12.120;2022-07-23T05:02:19;21.90;99.90
60727;DHT22;46577;49.004;12.120;2022-07-23T05:04:44;22.00;99.90
60727;DHT22;46577;49.004;12.120;2022-07-23T05:07:10;22.10;99.90
60727;DHT22;46577;49.004;12.120;2022-07-23T05:09:35;22.20;99.90
60727;DHT22;46577;49.004;12.120;2022-07-23T05:12:01;22.40;99.90
60727;DHT22;46577;49.004;12.120;2022-07-23T05:14:27;22.50;99.80
60727;DHT22;46577;49.004;12.120;2022-07-23T05:16:53;22.60;99.40
60727;DHT22;46577;49.004;12.120;2022-07-23T05:19:19;22.70;98.60
60727;DHT22;46577;49.004;12.120;2022-07-23T05:21:45;22.80;98.40
60727;DHT22;46577;49.004;12.120;2022-07-23T05:24:10;22.90;99.00
60727;DHT22;46577;49.004;12.120;2022-07-23T05:26:36;22.90;99.50
60727;DHT22;46577;49.004;12.120;2022-07-23T05:29:02;23.00;99.90
60727;DHT22;46577;49.004;12.120;2022-07-23T05:31:28;23.10;99.90
60727;DHT22;46577;49.004;12.120;2022-07-23T05:33:53;23.20;99.90
60727;DHT22;46577;49.004;12.120;2022-07-23T05:36:19;23.20;99.50
60727;DHT22;46577;49.004;12.120;2022-07-23T05:38:44;23.30;99.30
60727;DHT22;46577;49.004;12.120;2022-07-23T05:41:10;23.40;99.50
60727;DHT22;46577;49.004;12.120;2022-07-23T05:43:36;23.30;98.10
60727;DHT22;46577;49.004;12.120;2022-07-23T05:46:01;23.20;98.80
60727;DHT22;46577;49.004;12.120;2022-07-23T05:48:27;23.10;98.40
60727;DHT22;46577;49.004;12.120;2022-07-23T05:50:53;23.10;98.90
60727;DHT22;46577;49.004;12.120;2022-07-23T05:53:18;23.20;99.30
60727;DHT22;46577;49.004;12.120;2022-07-23T05:55:44;23.20;99.50
60727;DHT22;46577;49.004;12.120;2022-07-23T05:58:09;23.30;99.00
60727;DHT22;46577;49.004;12.120;2022-07-23T06:00:35;23.40;98.40
60727;DHT22;46577;49.004;12.120;2022-07-23T06:03:01;23.50;98.30
60727;DHT22;46577;49.004;12.120;2022-07-23T06:05:26;23.80;98.10
60727;DHT22;46577;49.004;12.120;2022-07-23T06:07:52;24.00;97.50
60727;DHT22;46577;49.004;12.120;2022-07-23T06:10:18;24.20;97.40
60727;DHT22;46577;49.004;12.120;2022-07-23T06:12:44;24.40;97.00
60727;DHT22;46577;49.004;12.120;2022-07-23T06:15:10;24.50;96.30
60727;DHT22;46577;49.004;12.120;2022-07-23T06:17:36;24.70;96.30
60727;DHT22;46577;49.004;12.120;2022-07-23T06:20:05;24.80;95.80
60727;DHT22;46577;49.004;12.120;2022-07-23T06:22:31;25.10;95.60
60727;DHT22;46577;49.004;12.120;2022-07-23T06:24:57;25.30;95.10
60727;DHT22;46577;49.004;12.120;2022-07-23T06:27:22;25.30;94.80
60727;DHT22;46577;49.004;12.120;2022-07-23T06:29:48;25.10;95.20
60727;DHT22;46577;49.004;12.120;2022-07-23T06:32:13;24.90;95.10
60727;DHT22;46577;49.004;12.120;2022-07-23T06:34:39;24.90;95.40
60727;DHT22;46577;49.004;12.120;2022-07-23T06:37:05;25.30;95.10
60727;DHT22;46577;49.004;12.120;2022-07-23T06:39:31;25.60;94.40
60727;DHT22;46577;49.004;12.120;2022-07-23T06:41:56;25.60;94.40
60727;DHT22;46577;49.004;12.120;2022-07-23T06:44:22;25.90;93.80
60727;DHT22;46577;49.004;12.120;2022-07-23T06:46:48;26.20;92.50
60727;DHT22;46577;49.004;12.120;2022-07-23T06:49:13;26.70;91.80
60727;DHT22;46577;49.004;12.120;2022-07-23T06:51:39;26.70;91.00
60727;DHT22;46577;49.004;12.120;2022-07-23T06:54:05;27.00;90.30
60727;DHT22;46577;49.004;12.120;2022-07-23T06:56:31;27.10;89.50
60727;DHT22;46577;49.004;12.120;2022-07-23T06:58:56;27.40;87.90
60727;DHT22;46577;49.004;12.120;2022-07-23T07:01:22;27.70;85.30
60727;DHT22;46577;49.004;12.120;2022-07-23T07:03:48;28.40;83.40
60727;DHT22;46577;49.004;12.120;2022-07-23T07:06:14;29.40;78.80
60727;DHT22;46577;49.004;12.120;2022-07-23T07:08:40;30.20;73.80
60727;DHT22;46577;49.004;12.120;2022-07-23T07:11:05;30.70;70.70
60727;DHT22;46577;49.004;12.120;2022-07-23T07:13:31;31.10;68.60
60727;DHT22;46577;49.004;12.120;2022-07-23T07:15:57;31.00;67.20
60727;DHT22;46577;49.004;12.120;2022-07-23T07:18:22;30.40;66.80
60727;DHT22;46577;49.004;12.120;2022-07-23T07:20:48;29.80;68.80
60727;DHT22;46577;49.004;12.120;2022-07-23T07:23:14;29.40;71.40
60727;DHT22;46577;49.004;12.120;2022-07-23T07:25:40;29.30;71.30
60727;DHT22;46577;49.004;12.120;2022-07-23T07:28:06;29.80;69.60
60727;DHT22;46577;49.004;12.120;2022-07-23T07:30:31;29.80;69.60
60727;DHT22;46577;49.004;12.120;2022-07-23T07:32:57;29.70;69.60
60727;DHT22;46577;49.004;12.120;2022-07-23T07:35:23;29.90;68.60
60727;DHT22;46577;49.004;12.120;2022-07-23T07:37:48;29.90;69.00
60727;DHT22;46577;49.004;12.120;2022-07-23T07:40:14;30.60;68.10
60727;DHT22;46577;49.004;12.120;2022-07-23T07:42:50;31.80;64.40
60727;DHT22;46577;49.004;12.120;2022-07-23T07:45:16;33.50;58.10
60727;DHT22;46577;49.004;12.120;2022-07-23T07:47:42;35.40;52.10
60727;DHT22;46577;49.004;12.120;2022-07-23T07:50:08;36.80;47.30
60727;DHT22;46577;49.004;12.120;2022-07-23T07:52:35;37.70;44.10
60727;DHT22;46577;49.004;12.120;2022-07-23T07:55:04;38.70;42.60
60727;DHT22;46577;49.004;12.120;2022-07-23T07:57:31;39.50;38.80
60727;DHT22;46577;49.004;12.120;2022-07-23T07:59:56;39.10;39.20
60727;DHT22;46577;49.004;12.120;2022-07-23T08:02:22;38.50;39.40
60727;DHT22;46577;49.004;12.120;2022-07-23T08:04:48;38.20;40.40
60727;DHT22;46577;49.004;12.120;2022-07-23T08:07:15;38.60;39.70
60727;DHT22;46577;49.004;12.120;2022-07-23T08:09:40;38.80;38.40
60727;DHT22;46577;49.004;12.120;2022-07-23T08:12:06;38.80;37.90
60727;DHT22;46577;49.004;12.120;2022-07-23T08:14:32;38.80;37.50
60727;DHT22;46577;49.004;12.120;2022-07-23T08:16:58;38.10;38.40
60727;DHT22;46577;49.004;12.120;2022-07-23T08:19:23;37.90;38.70
60727;DHT22;46577;49.004;12.120;2022-07-23T08:21:49;38.20;38.70
60727;DHT22;46577;49.004;12.120;2022-07-23T08:24:14;37.90;39.30
60727;DHT22;46577;49.004;12.120;2022-07-23T08:26:40;37.10;39.00
60727;DHT22;46577;49.004;12.120;2022-07-23T08:29:06;36.50;39.90
60727;DHT22;46577;49.004;12.120;2022-07-23T08:31:32;36.00;40.30
60727;DHT22;46577;49.004;12.120;2022-07-23T08:33:59;35.20;41.70
60727;DHT22;46577;49.004;12.120;2022-07-23T08:36:24;34.60;43.50
60727;DHT22;46577;49.004;12.120;2022-07-23T08:38:53;33.80;44.90
60727;DHT22;46577;49.004;12.120;2022-07-23T08:41:19;33.80;44.80
60727;DHT22;46577;49.004;12.120;2022-07-23T08:43:45;34.00;44.10
60727;DHT22;46577;49.004;12.120;2022-07-23T08:46:11;34.10;45.40
60727;DHT22;46577;49.004;12.120;2022-07-23T08:48:38;35.20;43.40
60727;DHT22;46577;49.004;12.120;2022-07-23T08:51:05;36.10;40.20
60727;DHT22;46577;49.004;12.120;2022-07-23T08:53:32;36.80;38.20
60727;DHT22;46577;49.004;12.120;2022-07-23T08:56:02;37.30;37.70
60727;DHT22;46577;49.004;12.120;2022-07-23T08:58:29;36.70;38.40
60727;DHT22;46577;49.004;12.120;2022-07-23T09:00:55;35.90;39.70
60727;DHT22;46577;49.004;12.120;2022-07-23T09:03:32;34.90;41.00
60727;DHT22;46577;49.004;12.120;2022-07-23T09:05:59;33.70;43.50
60727;DHT22;46577;49.004;12.120;2022-07-23T09:08:40;33.20;44.70
60727;DHT22;46577;49.004;12.120;2022-07-23T09:11:16;33.00;45.50
60727;DHT22;46577;49.004;12.120;2022-07-23T09:13:50;32.80;46.80
60727;DHT22;46577;49.004;12.120;2022-07-23T09:16:28;32.80;46.60
60727;DHT22;46577;49.004;12.120;2022-07-23T09:18:56;33.10;46.30
60727;DHT22;46577;49.004;12.120;2022-07-23T09:21:32;33.90;45.50
60727;DHT22;46577;49.004;12.120;2022-07-23T09:24:02;34.50;43.30
60727;DHT22;46577;49.004;12.120;2022-07-23T09:31:59;33.30;46.80
60727;DHT22;46577;49.004;12.120;2022-07-23T09:34:26;33.00;46.50
60727;DHT22;46577;49.004;12.120;2022-07-23T09:37:17;33.20;46.50
60727;DHT22;46577;49.004;12.120;2022-07-23T09:39:43;33.90;45.50
60727;DHT22;46577;49.004;12.120;2022-07-23T09:42:22;33.90;45.40
60727;DHT22;46577;49.004;12.120;2022-07-23T09:44:50;33.20;47.00
60727;DHT22;46577;49.004;12.120;2022-07-23T09:47:16;32.80;47.50
60727;DHT22;46577;49.004;12.120;2022-07-23T09:50:01;32.40;48.80
60727;DHT22;46577;49.004;12.120;2022-07-23T09:52:49;31.90;50.10
60727;DHT22;46577;49.004;12.120;2022-07-23T09:55:16;31.40;51.50
60727;DHT22;46577;49.004;12.120;2022-07-23T09:57:42;31.40;51.80
60727;DHT22;46577;49.004;12.120;2022-07-23T10:00:12;31.60;52.20
60727;DHT22;46577;49.004;12.120;2022-07-23T10:02:39;32.60;50.10
60727;DHT22;46577;49.004;12.120;2022-07-23T10:05:05;33.70;48.00
60727;DHT22;46577;49.004;12.120;2022-07-23T10:07:34;34.70;46.10
60727;DHT22;46577;49.004;12.120;2022-07-23T10:10:03;35.10;44.90
60727;DHT22;46577;49.004;12.120;2022-07-23T10:12:29;36.30;43.40
60727;DHT22;46577;49.004;12.120;2022-07-23T10:15:00;38.40;40.60
60727;DHT22;46577;49.004;12.120;2022-07-23T10:17:29;40.90;36.30
60727;DHT22;46577;49.004;12.120;2022-07-23T10:19:55;42.30;33.30
60727;DHT22;46577;49.004;12.120;2022-07-23T10:22:24;42.50;32.60
60727;DHT22;46577;49.004;12.120;2022-07-23T10:31:13;45.10;29.30
60727;DHT22;46577;49.004;12.120;2022-07-23T10:36:32;45.30;28.10
60727;DHT22;46577;49.004;12.120;2022-07-23T10:39:13;44.90;28.70
60727;DHT22;46577;49.004;12.120;2022-07-23T10:41:41;45.60;28.20
60727;DHT22;46577;49.004;12.120;2022-07-23T10:44:15;46.10;27.40
60727;DHT22;46577;49.004;12.120;2022-07-23T10:46:59;45.40;27.30
60727;DHT22;46577;49.004;12.120;2022-07-23T10:49:32;44.60;28.60
60727;DHT22;46577;49.004;12.120;2022-07-23T10:54:43;43.80;28.60
60727;DHT22;46577;49.004;12.120;2022-07-23T10:57:11;43.60;29.10
60727;DHT22;46577;49.004;12.120;2022-07-23T11:02:35;44.70;27.50
60727;DHT22;46577;49.004;12.120;2022-07-23T11:05:10;45.40;27.60
60727;DHT22;46577;49.004;12.120;2022-07-23T11:08:18;46.40;26.60
60727;DHT22;46577;49.004;12.120;2022-07-23T11:10:45;47.10;25.50
60727;DHT22;46577;49.004;12.120;2022-07-23T11:13:30;47.40;25.60
60727;DHT22;46577;49.004;12.120;2022-07-23T11:32:03;41.50;31.00
60727;DHT22;46577;49.004;12.120;2022-07-23T11:34:35;40.70;33.40
60727;DHT22;46577;49.004;12.120;2022-07-23T11:37:04;39.80;34.90
60727;DHT22;46577;49.004;12.120;2022-07-23T11:39:31;37.70;38.50
60727;DHT22;46577;49.004;12.120;2022-07-23T11:41:59;35.40;44.90
60727;DHT22;46577;49.004;12.120;2022-07-23T11:44:26;33.80;54.10
60727;DHT22;46577;49.004;12.120;2022-07-23T11:47:01;32.80;54.00
60727;DHT22;46577;49.004;12.120;2022-07-23T11:49:27;32.10;55.50
60727;DHT22;46577;49.004;12.120;2022-07-23T11:52:22;31.60;62.80
60727;DHT22;46577;49.004;12.120;2022-07-23T11:54:53;31.30;59.40
60727;DHT22;46577;49.004;12.120;2022-07-23T11:57:23;31.20;62.60
60727;DHT22;46577;49.004;12.120;2022-07-23T11:59:52;31.10;62.50
60727;DHT22;46577;49.004;12.120;2022-07-23T12:02:20;31.20;64.80
60727;DHT22;46577;49.004;12.120;2022-07-23T12:04:49;31.40;62.90
60727;DHT22;46577;49.004;12.120;2022-07-23T12:10:23;31.40;62.80
60727;DHT22;46577;49.004;12.120;2022-07-23T12:12:56;31.60;64.30
60727;DHT22;46577;49.004;12.120;2022-07-23T12:15:34;31.90;67.30
60727;DHT22;46577;49.004;12.120;2022-07-23T12:18:03;32.10;63.00
60727;DHT22;46577;49.004;12.120;2022-07-23T12:20:31;32.20;62.80
60727;DHT22;46577;49.004;12.120;2022-07-23T12:23:01;32.30;63.00
60727;DHT22;46577;49.004;12.120;2022-07-23T12:25:30;32.10;63.50
60727;DHT22;46577;49.004;12.120;2022-07-23T12:28:11;31.90;64.20
60727;DHT22;46577;49.004;12.120;2022-07-23T12:30:40;32.10;66.70
60727;DHT22;46577;49.004;12.120;2022-07-23T12:33:09;32.10;64.40
60727;DHT22;46577;49.004;12.120;2022-07-23T12:35:41;31.80;62.20
60727;DHT22;46577;49.004;12.120;2022-07-23T12:38:14;31.60;63.70
60727;DHT22;46577;49.004;12.120;2022-07-23T12:43:21;31.50;64.50
60727;DHT22;46577;49.004;12.120;2022-07-23T12:45:49;31.30;64.00
60727;DHT22;46577;49.004;12.120;2022-07-23T12:51:07;31.30;64.60
60727;DHT22;46577;49.004;12.120;2022-07-23T12:53:41;31.30;67.30
60727;DHT22;46577;49.004;12.120;2022-07-23T12:59:15;31.30;65.50
60727;DHT22;46577;49.004;12.120;2022-07-23T13:01:59;31.30;65.60
60727;DHT22;46577;49.004;12.120;2022-07-23T13:04:25;31.30;62.70
60727;DHT22;46577;49.004;12.120;2022-07-23T13:06:53;31.30;62.10
60727;DHT22;46577;49.004;12.120;2022-07-23T13:09:24;31.50;59.80
60727;DHT22;46577;49.004;12.120;2022-07-23T13:11:51;31.50;59.70
60727;DHT22;46577;49.004;12.120;2022-07-23T13:14:18;31.50;56.70
60727;DHT22;46577;49.004;12.120;2022-07-23T13:16:45;31.30;55.30
60727;DHT22;46577;49.004;12.120;2022-07-23T13:19:11;31.20;57.10
60727;DHT22;46577;49.004;12.120;2022-07-23T13:21:36;31.40;57.50
60727;DHT22;46577;49.004;12.120;2022-07-23T13:24:02;31.50;57.80
60727;DHT22;46577;49.004;12.120;2022-07-23T13:26:28;31.40;58.90
60727;DHT22;46577;49.004;12.120;2022-07-23T13:28:54;31.30;56.00
60727;DHT22;46577;49.004;12.120;2022-07-23T13:31:20;31.10;54.40
60727;DHT22;46577;49.004;12.120;2022-07-23T13:33:45;31.20;53.60
60727;DHT22;46577;49.004;12.120;2022-07-23T13:36:11;31.50;55.20
60727;DHT22;46577;49.004;12.120;2022-07-23T13:38:37;31.80;51.10
60727;DHT22;46577;49.004;12.120;2022-07-23T13:41:03;31.90;50.50
60727;DHT22;46577;49.004;12.120;2022-07-23T13:43:29;31.90;49.90
60727;DHT22;46577;49.004;12.120;2022-07-23T13:45:55;31.90;49.20
60727;DHT22;46577;49.004;12.120;2022-07-23T13:48:21;31.70;51.60
60727;DHT22;46577;49.004;12.120;2022-07-23T13:50:48;31.70;51.00
60727;DHT22;46577;49.004;12.120;2022-07-23T13:53:17;31.70;48.10
60727;DHT22;46577;49.004;12.120;2022-07-23T13:55:43;31.50;47.80
60727;DHT22;46577;49.004;12.120;2022-07-23T13:58:10;31.60;47.30
60727;DHT22;46577;49.004;12.120;2022-07-23T14:00:39;32.00;49.50
60727;DHT22;46577;49.004;12.120;2022-07-23T14:03:05;32.30;47.00
60727;DHT22;46577;49.004;12.120;2022-07-23T14:05:31;32.50;46.70
60727;DHT22;46577;49.004;12.120;2022-07-23T14:07:56;32.60;46.50
60727;DHT22;46577;49.004;12.120;2022-07-23T14:10:23;32.70;46.20
60727;DHT22;46577;49.004;12.120;2022-07-23T14:12:50;32.90;43.10
60727;DHT22;46577;49.004;12.120;2022-07-23T14:15:17;32.80;43.80
60727;DHT22;46577;49.004;12.120;2022-07-23T14:17:44;32.60;44.30
60727;DHT22;46577;49.004;12.120;2022-07-23T14:20:11;32.60;44.50
60727;DHT22;46577;49.004;12.120;2022-07-23T14:22:37;32.60;44.60
60727;DHT22;46577;49.004;12.120;2022-07-23T14:25:04;32.50;45.40
60727;DHT22;46577;49.004;12.120;2022-07-23T14:27:30;32.40;43.40
60727;DHT22;46577;49.004;12.120;2022-07-23T14:29:56;32.40;44.70
60727;DHT22;46577;49.004;12.120;2022-07-23T14:32:23;32.30;44.50
60727;DHT22;46577;49.004;12.120;2022-07-23T14:34:49;32.20;43.40
60727;DHT22;46577;49.004;12.120;2022-07-23T14:37:15;32.20;45.40
60727;DHT22;46577;49.004;12.120;2022-07-23T14:39:42;32.50;43.60
60727;DHT22;46577;49.004;12.120;2022-07-23T14:42:08;32.60;44.60
60727;DHT22;46577;49.004;12.120;2022-07-23T14:44:35;32.70;44.20
60727;DHT22;46577;49.004;12.120;2022-07-23T14:47:01;32.70;43.00
60727;DHT22;46577;49.004;12.120;2022-07-23T14:49:28;32.90;42.40
60727;DHT22;46577;49.004;12.120;2022-07-23T14:51:54;32.90;42.20
60727;DHT22;46577;49.004;12.120;2022-07-23T14:54:20;32.90;41.40
60727;DHT22;46577;49.004;12.120;2022-07-23T14:56:46;32.70;42.20
60727;DHT22;46577;49.004;12.120;2022-07-23T14:59:12;32.60;41.90
60727;DHT22;46577;49.004;12.120;2022-07-23T15:01:39;32.40;42.10
60727;DHT22;46577;49.004;12.120;2022-07-23T15:04:05;32.40;43.20
60727;DHT22;46577;49.004;12.120;2022-07-23T15:06:31;32.30;42.60
60727;DHT22;46577;49.004;12.120;2022-07-23T15:08:57;32.10;44.40
60727;DHT22;46577;49.004;12.120;2022-07-23T15:11:23;31.90;43.90
60727;DHT22;46577;49.004;12.120;2022-07-23T15:13:49;31.60;44.10
60727;DHT22;46577;49.004;12.120;2022-07-23T15:16:14;31.50;43.90
60727;DHT22;46577;49.004;12.120;2022-07-23T15:18:40;31.50;44.40
60727;DHT22;46577;49.004;12.120;2022-07-23T15:21:06;31.40;44.50
60727;DHT22;46577;49.004;12.120;2022-07-23T15:23:32;31.50;43.90
60727;DHT22;46577;49.004;12.120;2022-07-23T15:25:58;31.50;44.60
60727;DHT22;46577;49.004;12.120;2022-07-23T15:28:24;31.60;44.90
60727;DHT22;46577;49.004;12.120;2022-07-23T15:30:50;31.70;43.80
60727;DHT22;46577;49.004;12.120;2022-07-23T15:33:18;32.00;44.10
60727;DHT22;46577;49.004;12.120;2022-07-23T15:35:44;32.30;43.70
60727;DHT22;46577;49.004;12.120;2022-07-23T15:38:09;32.60;43.00
60727;DHT22;46577;49.004;12.120;2022-07-23T15:40:35;32.70;42.40
60727;DHT22;46577;49.004;12.120;2022-07-23T15:43:01;32.70;42.20
60727;DHT22;46577;49.004;12.120;2022-07-23T15:45:27;32.60;41.90
60727;DHT22;46577;49.004;12.120;2022-07-23T15:47:54;32.40;42.50
60727;DHT22;46577;49.004;12.120;2022-07-23T15:50:20;32.40;42.40
60727;DHT22;46577;49.004;12.120;2022-07-23T15:52:45;32.10;42.40
60727;DHT22;46577;49.004;12.120;2022-07-23T15:55:11;32.00;43.80
60727;DHT22;46577;49.004;12.120;2022-07-23T15:57:37;32.10;43.90
60727;DHT22;46577;49.004;12.120;2022-07-23T16:00:04;32.10;43.70
60727;DHT22;46577;49.004;12.120;2022-07-23T16:02:30;32.30;43.60